Time;durP1;ratioP1;P1;durP2;ratioP2;P2;SDS_P1;SDS_P2;PMS_P1;PMS_P2;Temp;Humidity;BMP_temperature;BMP_pressure;BME280_temperature;BME280_humidity;BME280_pressure;Samples;Min_cycle;Max_cycle;Signal;HPM_P1;HPM_P2
2022/12/08 00:01:41;;;;;;;13.55;4.00;;;;;;;4.24;100.00;100999.69;2615185;36;20033;-48
2022/12/08 00:04:09;;;;;;;10.05;4.07;;;;;;;4.11;100.00;100991.56;2614719;36;20044;-48
2022/12/08 00:09:31;;;;;;;7.97;3.40;;;;;;;3.99;100.00;100975.38;2614986;47;20037;-47
2022/12/08 00:12:02;;;;;;;5.45;3.15;;;;;;;3.94;100.00;100981.91;2611563;36;20041;-50
2022/12/08 00:14:34;;;;;;;5.13;3.40;;;;;;;3.96;100.00;100967.56;2612574;31;20145;-48
2022/12/08 00:17:03;;;;;;;7.97;3.50;;;;;;;3.93;100.00;100966.88;2611504;36;20042;-49
2022/12/08 00:19:32;;;;;;;5.40;3.42;;;;;;;4.03;100.00;100960.06;2611939;36;20041;-52
2022/12/08 00:22:03;;;;;;;7.63;3.70;;;;;;;3.99;100.00;100956.72;2613111;36;20035;-51
2022/12/08 00:24:33;;;;;;;7.00;3.25;;;;;;;3.95;100.00;100954.34;2614882;36;20038;-51
2022/12/08 00:27:02;;;;;;;7.55;3.60;;;;;;;3.84;100.00;100947.84;2615208;36;20062;-55
2022/12/08 00:29:31;;;;;;;8.40;3.60;;;;;;;3.85;100.00;100952.22;2614511;36;20605;-55
2022/12/08 00:31:59;;;;;;;5.40;3.07;;;;;;;3.85;100.00;100936.22;2612848;31;20038;-54
2022/12/08 00:34:27;;;;;;;6.85;3.03;;;;;;;3.92;100.00;100941.22;2615678;36;20808;-54
2022/12/08 00:36:55;;;;;;;5.55;3.20;;;;;;;4.01;100.00;100935.34;2616352;36;20045;-50
2022/12/08 00:39:26;;;;;;;9.80;3.55;;;;;;;4.06;100.00;100921.75;2616788;31;20053;-51
2022/12/08 00:44:36;;;;;;;8.80;3.22;;;;;;;4.00;100.00;100917.63;2614055;36;20037;-56
2022/12/08 00:47:04;;;;;;;4.95;3.00;;;;;;;3.90;100.00;100911.16;2615820;36;20031;-48
2022/12/08 00:49:32;;;;;;;5.63;3.67;;;;;;;3.86;100.00;100908.66;2616357;36;20041;-47
2022/12/08 00:52:00;;;;;;;5.15;3.10;;;;;;;3.94;100.00;100912.69;2616711;36;20030;-54
2022/12/08 00:54:31;;;;;;;9.73;3.08;;;;;;;4.02;100.00;100910.44;2614548;36;20717;-54
2022/12/08 00:57:00;;;;;;;9.60;3.65;;;;;;;3.98;100.00;100909.75;2616454;31;20037;-54
2022/12/08 00:59:28;;;;;;;5.97;3.10;;;;;;;3.93;100.00;100908.28;2615487;36;20022;-53
2022/12/08 01:01:56;;;;;;;7.47;3.42;;;;;;;3.96;100.00;100906.31;2612066;36;20544;-56
2022/12/08 01:04:25;;;;;;;7.45;3.38;;;;;;;4.01;100.00;100914.03;2615497;36;20554;-53
2022/12/08 01:06:53;;;;;;;7.03;3.88;;;;;;;3.99;100.00;100905.25;2616390;36;20033;-55
2022/12/08 01:09:22;;;;;;;6.50;3.87;;;;;;;4.00;100.00;100902.50;2615275;36;20038;-49
2022/12/08 01:11:53;;;;;;;5.93;3.88;;;;;;;4.09;100.00;100906.41;2610251;36;20661;-52
2022/12/08 01:14:21;;;;;;;8.55;4.15;;;;;;;4.13;100.00;100902.63;2615047;36;20034;-55
2022/12/08 01:16:49;;;;;;;7.82;4.45;;;;;;;4.11;100.00;100904.53;2615728;31;20034;-55
2022/12/08 01:19:19;;;;;;;7.25;3.88;;;;;;;4.27;100.00;100900.91;2614115;36;20057;-55
2022/12/08 01:21:48;;;;;;;7.22;4.53;;;;;;;4.37;100.00;100905.59;2614731;31;20538;-49
2022/12/08 01:24:18;;;;;;;10.73;4.13;;;;;;;4.27;100.00;100903.59;2615605;36;20031;-49
2022/12/08 01:26:47;;;;;;;8.00;3.90;;;;;;;4.31;100.00;100905.94;2615598;36;20053;-49
2022/12/08 01:29:19;;;;;;;7.28;4.72;;;;;;;4.48;100.00;100907.59;2615280;36;20034;-53
2022/12/08 01:31:47;;;;;;;9.10;4.20;;;;;;;4.52;100.00;100903.78;2615133;36;20103;-52
2022/12/08 01:34:16;;;;;;;8.83;5.10;;;;;;;4.53;100.00;100909.97;2615830;36;20586;-53
2022/12/08 01:36:46;;;;;;;12.32;5.00;;;;;;;4.56;100.00;100907.09;2616082;36;20450;-53
2022/12/08 01:39:17;;;;;;;8.82;4.97;;;;;;;4.61;100.00;100901.47;2615987;36;20057;-57
2022/12/08 01:41:47;;;;;;;12.20;5.93;;;;;;;4.39;100.00;100892.19;2615177;31;20035;-56
2022/12/08 01:44:57;;;;;;;10.38;6.35;;;;;;;4.46;100.00;100889.97;2616809;31;20420;-56
2022/12/08 01:47:28;;;;;;;13.95;6.88;;;;;;;4.49;100.00;100887.13;2615602;36;20038;-53
2022/12/08 01:49:57;;;;;;;12.77;7.03;;;;;;;4.62;100.00;100892.53;2614958;36;20031;-50
2022/12/08 01:52:30;;;;;;;12.07;7.53;;;;;;;4.61;100.00;100904.16;2615114;36;20578;-52
2022/12/08 01:55:03;;;;;;;12.88;7.90;;;;;;;4.66;100.00;100908.25;2615568;36;20037;-55
2022/12/08 01:57:36;;;;;;;16.02;7.40;;;;;;;4.61;100.00;100905.03;2615424;36;20563;-53
2022/12/08 02:00:18;;;;;;;12.98;7.45;;;;;;;4.56;100.00;100889.31;2613703;36;20035;-48
2022/12/08 02:02:54;;;;;;;13.25;7.85;;;;;;;4.54;100.00;100885.88;2614697;36;20435;-51
2022/12/08 02:05:24;;;;;;;16.75;6.63;;;;;;;4.43;100.00;100877.72;2615629;36;20065;-50
2022/12/08 02:07:53;;;;;;;12.52;6.88;;;;;;;4.61;100.00;100877.47;2616052;36;20334;-52
2022/12/08 02:10:24;;;;;;;9.68;5.68;;;;;;;4.49;100.00;100882.66;2615529;31;20030;-51
2022/12/08 02:12:55;;;;;;;12.95;6.07;;;;;;;4.48;100.00;100872.94;2615414;31;20042;-55
2022/12/08 02:15:35;;;;;;;11.38;5.53;;;;;;;4.43;100.00;100867.06;2614464;36;20030;-52
2022/12/08 02:18:17;;;;;;;10.52;5.28;;;;;;;4.39;100.00;100878.84;2615191;36;20037;-52
2022/12/08 02:20:57;;;;;;;7.35;3.90;;;;;;;4.41;100.00;100862.78;2614753;36;20035;-54
2022/12/08 02:23:36;;;;;;;7.20;4.30;;;;;;;4.50;100.00;100868.34;2615030;36;20038;-55
2022/12/08 02:26:34;;;;;;;4.88;3.63;;;;;;;4.31;100.00;100863.31;2615629;36;20038;-51
2022/12/08 02:29:52;;;;;;;9.57;3.85;;;;;;;4.26;100.00;100856.59;2615560;36;20037;-55
2022/12/08 02:32:51;;;;;;;6.43;4.00;;;;;;;4.22;100.00;100858.56;2558419;36;20030;-52
2022/12/08 02:35:29;;;;;;;10.45;4.50;;;;;;;4.23;100.00;100854.13;2616230;31;20027;-49
2022/12/08 02:38:06;;;;;;;8.55;5.28;;;;;;;4.24;100.00;100850.50;2609555;36;20041;-50
2022/12/08 02:40:39;;;;;;;9.82;5.55;;;;;;;4.28;100.00;100854.69;2614001;36;20042;-47
2022/12/08 02:43:14;;;;;;;12.48;6.63;;;;;;;4.33;100.00;100844.59;2614895;36;20154;-49
2022/12/08 02:45:48;;;;;;;14.80;7.05;;;;;;;4.46;100.00;100850.00;2615184;36;20026;-49
2022/12/08 02:48:17;;;;;;;12.52;7.78;;;;;;;4.44;100.00;100851.91;2615757;36;20030;-49
2022/12/08 02:50:48;;;;;;;14.20;8.30;;;;;;;4.35;100.00;100843.53;2615161;36;20034;-49
2022/12/08 02:53:16;;;;;;;11.55;7.20;;;;;;;4.39;100.00;100839.72;2609987;31;20307;-50
2022/12/08 02:55:53;;;;;;;12.43;6.88;;;;;;;4.31;100.00;100836.69;2614775;31;20031;-56
2022/12/08 02:59:00;;;;;;;12.95;5.90;;;;;;;4.38;100.00;100827.34;2615093;36;20034;-57
2022/12/08 03:01:45;;;;;;;11.27;5.43;;;;;;;4.41;100.00;100814.81;2614514;36;20041;-51
2022/12/08 03:04:22;;;;;;;8.88;5.70;;;;;;;4.41;100.00;100820.97;2615114;36;20523;-52
2022/12/08 03:07:00;;;;;;;11.88;5.97;;;;;;;4.45;100.00;100817.16;2615073;36;20041;-53
2022/12/08 03:09:38;;;;;;;8.25;5.30;;;;;;;4.42;100.00;100812.03;2615550;36;20411;-52
2022/12/08 03:12:14;;;;;;;8.07;4.78;;;;;;;4.41;100.00;100814.81;2615429;36;20058;-53
2022/12/08 03:14:49;;;;;;;10.90;5.88;;;;;;;4.48;100.00;100811.63;2615220;31;20133;-54
2022/12/08 03:17:20;;;;;;;8.77;5.90;;;;;;;4.41;100.00;100798.81;2614617;36;20091;-50
2022/12/08 03:19:50;;;;;;;10.13;6.47;;;;;;;4.25;100.00;100796.25;2615408;36;20034;-47
2022/12/08 03:22:23;;;;;;;13.27;6.03;;;;;;;4.43;100.00;100796.91;2615409;31;20027;-51
2022/12/08 03:24:53;;;;;;;11.10;6.38;;;;;;;4.38;100.00;100799.84;2615306;36;20511;-55
2022/12/08 03:27:24;;;;;;;13.93;7.05;;;;;;;4.34;100.00;100793.88;2613473;36;20034;-50
2022/12/08 03:29:56;;;;;;;15.57;7.43;;;;;;;4.38;100.00;100794.53;2615555;36;20030;-55
2022/12/08 03:32:28;;;;;;;11.50;6.65;;;;;;;4.26;100.00;100790.84;2614982;36;20058;-49
2022/12/08 03:34:59;;;;;;;12.30;6.85;;;;;;;4.39;100.00;100797.09;2615257;36;20022;-51
2022/12/08 03:37:31;;;;;;;11.32;7.20;;;;;;;4.63;100.00;100793.81;2615489;36;20123;-53
2022/12/08 03:40:00;;;;;;;11.98;7.28;;;;;;;4.70;100.00;100788.94;2615675;31;20038;-55
2022/12/08 03:42:28;;;;;;;13.05;8.05;;;;;;;4.67;100.00;100789.16;2614984;36;20575;-47
2022/12/08 03:44:56;;;;;;;11.43;7.13;;;;;;;4.53;100.00;100779.34;2615018;36;20031;-53
2022/12/08 03:47:25;;;;;;;12.93;7.90;;;;;;;4.69;100.00;100771.22;2615158;36;20034;-48
2022/12/08 03:49:53;;;;;;;11.85;8.05;;;;;;;4.60;100.00;100766.50;2615596;36;20488;-50
2022/12/08 03:52:21;;;;;;;14.13;8.10;;;;;;;4.72;100.00;100776.34;2615332;36;20561;-48
2022/12/08 03:54:52;;;;;;;12.40;7.45;;;;;;;4.78;100.00;100780.44;2615267;36;20053;-51
2022/12/08 03:57:21;;;;;;;14.18;8.77;;;;;;;4.79;100.00;100780.34;2615062;36;20030;-53
2022/12/08 03:59:49;;;;;;;13.77;8.50;;;;;;;4.68;100.00;100780.16;2615350;36;20045;-52
2022/12/08 04:02:17;;;;;;;11.97;7.63;;;;;;;4.70;100.00;100783.59;2614729;31;20173;-52
2022/12/08 04:04:46;;;;;;;14.18;7.03;;;;;;;4.71;100.00;100779.97;2615180;36;20031;-47
2022/12/08 04:07:14;;;;;;;12.25;7.40;;;;;;;4.71;100.00;100777.31;2615575;36;20019;-52
2022/12/08 04:09:43;;;;;;;11.70;7.13;;;;;;;4.64;100.00;100774.19;2616224;36;20030;-50
2022/12/08 04:12:14;;;;;;;11.40;6.55;;;;;;;4.66;100.00;100771.44;2617073;31;20621;-48
2022/12/08 04:14:42;;;;;;;12.43;7.55;;;;;;;4.52;100.00;100766.97;2615671;36;20375;-50
2022/12/08 04:17:11;;;;;;;11.82;6.28;;;;;;;4.55;100.00;100759.66;2615860;36;20041;-47
2022/12/08 04:19:39;;;;;;;11.63;6.65;;;;;;;4.57;100.00;100756.88;2616751;36;20332;-47
2022/12/08 04:22:08;;;;;;;10.17;6.23;;;;;;;4.56;100.00;100755.16;2615948;36;20042;-45
2022/12/08 04:24:36;;;;;;;10.10;5.88;;;;;;;4.50;100.00;100756.41;2615942;36;20023;-48
2022/12/08 04:27:05;;;;;;;7.90;4.57;;;;;;;4.39;100.00;100759.78;2615665;36;20030;-48
2022/12/08 04:29:36;;;;;;;7.37;4.33;;;;;;;4.37;100.00;100755.50;2615982;36;20038;-52
2022/12/08 04:32:04;;;;;;;8.68;4.30;;;;;;;4.46;100.00;100749.59;2615431;36;20539;-48
2022/12/08 04:34:32;;;;;;;7.47;4.10;;;;;;;4.60;100.00;100754.03;2615830;36;20034;-53
2022/12/08 04:37:01;;;;;;;7.95;4.70;;;;;;;4.40;100.00;100760.63;2616085;36;20030;-52
2022/12/08 04:39:29;;;;;;;6.35;3.22;;;;;;;4.47;100.00;100756.63;2615825;36;20038;-49
2022/12/08 04:41:57;;;;;;;9.35;4.05;;;;;;;4.54;100.00;100757.94;2611102;36;20423;-52
2022/12/08 04:44:25;;;;;;;6.97;3.50;;;;;;;4.51;100.00;100752.81;2616316;36;20034;-49
2022/12/08 04:46:56;;;;;;;6.15;3.88;;;;;;;4.52;100.00;100759.84;2615887;36;20049;-50
2022/12/08 04:49:25;;;;;;;6.53;3.78;;;;;;;4.52;100.00;100743.88;2616386;36;20034;-47
2022/12/08 04:51:53;;;;;;;8.38;3.80;;;;;;;4.60;100.00;100748.69;2616797;31;20031;-44
2022/12/08 04:54:21;;;;;;;7.70;4.32;;;;;;;4.70;100.00;100751.63;2616408;31;20109;-47
2022/12/08 04:56:50;;;;;;;6.00;3.63;;;;;;;4.67;100.00;100752.66;2615651;36;20584;-50
2022/12/08 04:59:18;;;;;;;6.13;3.35;;;;;;;4.64;100.00;100752.00;2615770;36;20038;-50
2022/12/08 05:01:46;;;;;;;7.07;3.88;;;;;;;4.60;100.00;100750.50;2615487;36;20027;-49
2022/12/08 05:04:17;;;;;;;5.30;3.70;;;;;;;4.59;100.00;100751.44;2615394;36;20030;-50
2022/12/08 05:06:46;;;;;;;9.98;3.75;;;;;;;4.53;100.00;100756.25;2609785;31;20026;-49
2022/12/08 05:09:14;;;;;;;8.50;3.40;;;;;;;4.64;100.00;100750.19;2615971;36;20038;-48
2022/12/08 05:11:42;;;;;;;6.78;3.80;;;;;;;4.57;100.00;100755.06;2615966;36;20443;-49
2022/12/08 05:14:12;;;;;;;3.67;2.60;;;;;;;4.60;100.00;100750.50;2615966;31;20022;-52
2022/12/08 05:16:41;;;;;;;5.57;1.85;;;;;;;4.64;100.00;100744.00;2615586;36;20026;-49
2022/12/08 05:19:09;;;;;;;4.13;1.50;;;;;;;4.54;100.00;100746.44;2615398;36;20077;-51
2022/12/08 05:21:40;;;;;;;3.25;1.10;;;;;;;4.57;100.00;100752.41;2616281;36;20026;-51
2022/12/08 05:24:08;;;;;;;2.30;1.30;;;;;;;4.72;100.00;100749.69;2615258;36;20023;-54
2022/12/08 05:26:37;;;;;;;2.28;1.33;;;;;;;4.71;100.00;100743.50;2615596;36;20019;-52
2022/12/08 05:29:05;;;;;;;3.55;1.13;;;;;;;4.69;100.00;100749.91;2616111;31;20041;-52
2022/12/08 05:31:33;;;;;;;2.22;1.00;;;;;;;4.69;100.00;100749.91;2615707;36;20555;-50
2022/12/08 05:34:02;;;;;;;1.67;1.20;;;;;;;4.64;100.00;100746.66;2615825;36;20455;-54
2022/12/08 05:36:30;;;;;;;1.80;1.35;;;;;;;4.66;100.00;100755.44;2616592;36;20429;-49
2022/12/08 05:39:01;;;;;;;3.40;1.33;;;;;;;4.62;100.00;100749.44;2615933;36;20566;-48
2022/12/08 05:41:29;;;;;;;3.28;1.00;;;;;;;4.66;100.00;100744.78;2615937;36;20582;-48
2022/12/08 05:43:58;;;;;;;1.65;0.90;;;;;;;4.47;100.00;100735.28;2615890;36;20045;-51
2022/12/08 05:46:26;;;;;;;2.60;1.00;;;;;;;4.59;100.00;100733.63;2615433;36;20030;-47
2022/12/08 05:48:54;;;;;;;1.08;0.70;;;;;;;4.35;100.00;100728.13;2615981;36;20038;-55
2022/12/08 05:51:25;;;;;;;2.70;0.82;;;;;;;4.26;100.00;100728.72;2615913;36;20038;-53
2022/12/08 05:53:54;;;;;;;1.63;0.80;;;;;;;4.18;100.00;100724.72;2615871;36;20030;-52
2022/12/08 05:56:25;;;;;;;1.55;0.88;;;;;;;4.38;100.00;100714.59;2616057;36;20450;-48
2022/12/08 05:58:54;;;;;;;1.58;0.73;;;;;;;4.24;100.00;100717.28;2616073;36;20030;-45
2022/12/08 06:01:24;;;;;;;2.58;1.00;;;;;;;4.26;100.00;100715.38;2615395;36;20543;-49
2022/12/08 06:03:53;;;;;;;1.25;0.80;;;;;;;4.13;100.00;100710.84;2615167;36;20030;-50
2022/12/08 06:06:22;;;;;;;1.50;1.00;;;;;;;4.10;100.00;100711.03;2615187;36;20037;-47
2022/12/08 06:08:50;;;;;;;3.97;1.38;;;;;;;4.15;100.00;100708.94;2615610;31;20427;-51
2022/12/08 06:11:20;;;;;;;2.97;1.20;;;;;;;4.27;100.00;100701.09;2614744;36;20093;-48
2022/12/08 06:13:51;;;;;;;;;;;;;;;4.32;100.00;100699.00;2614953;36;20213;-51
2022/12/08 06:16:20;;;;;;;3.72;1.40;;;;;;;4.20;100.00;100714.81;2614972;36;19950;-50
2022/12/08 06:18:48;;;;;;;2.58;1.30;;;;;;;4.19;100.00;100717.59;2614771;36;20033;-52
2022/12/08 06:21:17;;;;;;;4.60;1.60;;;;;;;4.02;100.00;100716.84;2615685;36;20454;-54
2022/12/08 06:23:49;;;;;;;3.42;1.70;;;;;;;3.94;100.00;100710.31;2614777;36;20062;-50
2022/12/08 06:26:18;;;;;;;4.85;1.67;;;;;;;4.01;100.00;100712.47;2614618;36;20057;-53
2022/12/08 06:28:46;;;;;;;;;;;;;;;4.19;100.00;100713.09;2615680;36;20030;-47
2022/12/08 06:31:20;;;;;;;5.35;1.60;;;;;;;4.18;100.00;100713.19;2610205;31;19950;-51
2022/12/08 06:33:48;;;;;;;4.80;2.25;;;;;;;4.12;100.00;100717.13;2614346;36;20031;-50
2022/12/08 06:36:18;;;;;;;4.45;2.20;;;;;;;4.03;100.00;100709.72;2615208;31;20437;-53
2022/12/08 06:38:47;;;;;;;5.95;2.28;;;;;;;4.00;100.00;100725.88;2616171;36;20026;-49
2022/12/08 06:41:20;;;;;;;3.60;2.13;;;;;;;4.04;100.00;100722.94;2616019;54;20571;-52
2022/12/08 06:43:48;;;;;;;4.20;2.05;;;;;;;3.98;100.00;100711.81;2612676;36;20034;-55
2022/12/08 06:46:20;;;;;;;3.83;1.80;;;;;;;4.05;100.00;100710.50;2615368;36;21176;-50
2022/12/08 06:48:49;;;;;;;6.28;1.80;;;;;;;3.95;100.00;100717.34;2615667;36;20027;-54
2022/12/08 06:51:20;;;;;;;2.38;1.48;;;;;;;4.07;100.00;100711.22;2615761;36;20034;-50
2022/12/08 06:53:49;;;;;;;6.63;2.17;;;;;;;4.00;100.00;100721.41;2615713;36;20026;-50
2022/12/08 06:56:18;;;;;;;4.87;1.70;;;;;;;3.97;100.00;100712.78;2616950;31;20038;-55
2022/12/08 06:58:46;;;;;;;;;;;;;;;3.95;100.00;100704.03;2615257;36;20037;-50
2022/12/08 07:01:15;;;;;;;3.97;1.60;;;;;;;3.89;100.00;100712.38;2615667;36;19954;-55
2022/12/08 07:03:46;;;;;;;6.43;2.58;;;;;;;3.86;100.00;100708.97;2615363;36;20135;-51
2022/12/08 07:06:17;;;;;;;5.88;2.33;;;;;;;3.79;100.00;100718.31;2615865;31;20094;-50
2022/12/08 07:08:46;;;;;;;5.93;2.30;;;;;;;3.92;100.00;100714.88;2615470;36;20030;-53
2022/12/08 07:11:14;;;;;;;4.73;2.70;;;;;;;3.88;100.00;100718.69;2615543;36;20555;-51
2022/12/08 07:13:42;;;;;;;3.53;2.22;;;;;;;3.91;100.00;100722.00;2615063;36;20498;-49
2022/12/08 07:16:12;;;;;;;5.10;2.28;;;;;;;3.93;100.00;100725.44;2615236;31;20605;-54
2022/12/08 07:18:41;;;;;;;5.55;2.80;;;;;;;4.05;100.00;100726.47;2615391;36;20031;-55
2022/12/08 07:21:14;;;;;;;4.32;3.47;;;;;;;3.90;100.00;100724.75;2615664;36;20034;-52
2022/12/08 07:23:43;;;;;;;4.95;3.03;;;;;;;3.90;100.00;100730.97;2614410;36;20094;-47
2022/12/08 07:26:13;;;;;;;4.85;2.67;;;;;;;3.83;100.00;100733.13;2614971;31;20030;-50
2022/12/08 07:28:43;;;;;;;5.55;3.63;;;;;;;4.01;100.00;100725.78;2614834;36;20431;-53
2022/12/08 07:31:19;;;;;;;5.63;3.00;;;;;;;4.00;100.00;100731.22;2614038;36;20036;-48
2022/12/08 07:33:49;;;;;;;6.70;3.30;;;;;;;3.92;100.00;100736.19;2615085;36;20038;-54
2022/12/08 07:36:20;;;;;;;;;;;;;;;4.00;100.00;100731.22;2615508;36;20026;-50
2022/12/08 07:38:48;;;;;;;5.53;3.30;;;;;;;3.89;100.00;100742.56;2614243;36;19957;-47
2022/12/08 07:41:17;;;;;;;5.18;3.15;;;;;;;3.92;100.00;100738.84;2545610;36;20065;-53
2022/12/08 07:43:47;;;;;;;8.38;3.85;;;;;;;3.91;100.00;100739.78;2536778;36;20077;-51
2022/12/08 07:46:17;;;;;;;6.40;3.42;;;;;;;3.92;100.00;100744.16;2536082;31;20795;-49
2022/12/08 07:48:45;;;;;;;4.95;3.30;;;;;;;3.99;100.00;100740.16;2581718;36;20649;-47
2022/12/08 07:51:15;;;;;;;6.40;3.27;;;;;;;3.96;100.00;100740.34;2615574;36;20018;-47
2022/12/08 07:53:48;;;;;;;6.20;3.15;;;;;;;3.98;100.00;100741.13;2599906;36;20751;-47
2022/12/08 07:56:16;;;;;;;5.30;2.92;;;;;;;3.98;100.00;100743.78;2609057;36;20550;-50
2022/12/08 07:58:46;;;;;;;4.97;3.53;;;;;;;3.90;100.00;100743.41;2582408;36;20838;-53
2022/12/08 08:01:26;;;;;;;4.40;2.92;;;;;;;3.91;100.00;100743.28;2549015;36;20038;-50
2022/12/08 08:03:55;;;;;;;5.80;3.10;;;;;;;3.83;100.00;100746.44;2609113;36;20085;-51
2022/12/08 08:06:23;;;;;;;;;;;;;;;3.90;100.00;100751.38;2614788;36;20038;-54
2022/12/08 08:08:55;;;;;;;6.15;3.03;;;;;;;3.83;100.00;100738.47;2615140;36;19955;-52
2022/12/08 08:11:24;;;;;;;7.50;3.10;;;;;;;3.91;100.00;100742.47;2615174;36;20538;-53
2022/12/08 08:13:53;;;;;;;6.85;2.95;;;;;;;3.91;100.00;100729.13;2615692;36;20542;-53
2022/12/08 08:16:22;;;;;;;;;;;;;;;3.84;100.00;100742.84;2614926;36;20057;-53
2022/12/08 08:18:51;;;;;;;3.80;2.73;;;;;;;4.02;100.00;100750.63;2615395;36;19950;-52
2022/12/08 08:21:20;;;;;;;;;;;;;;;4.02;100.00;100742.66;2614353;36;20057;-55
2022/12/08 08:23:49;;;;;;;3.50;2.60;;;;;;;4.04;100.00;100738.06;2545251;36;20861;-54
2022/12/08 08:26:20;;;;;;;7.10;2.80;;;;;;;3.96;100.00;100745.66;2610763;31;20057;-52
2022/12/08 08:28:49;;;;;;;5.10;3.53;;;;;;;3.99;100.00;100745.47;2615020;36;20026;-53
2022/12/08 08:31:17;;;;;;;6.13;3.50;;;;;;;3.95;100.00;100750.16;2615136;36;20026;-51
2022/12/08 08:33:47;;;;;;;7.50;3.60;;;;;;;3.89;100.00;100747.88;2615414;36;20034;-56
2022/12/08 08:36:15;;;;;;;6.07;2.90;;;;;;;3.84;100.00;100737.53;2616038;36;20415;-53
2022/12/08 08:38:44;;;;;;;4.82;2.65;;;;;;;4.02;100.00;100742.66;2610421;36;20035;-48
2022/12/08 08:41:13;;;;;;;5.60;3.10;;;;;;;4.01;100.00;100732.94;2614653;36;20038;-46
2022/12/08 08:43:44;;;;;;;3.83;2.55;;;;;;;3.98;100.00;100735.78;2616307;31;20115;-49
2022/12/08 08:46:12;;;;;;;5.70;3.13;;;;;;;3.88;100.00;100737.31;2614821;36;20033;-48
2022/12/08 08:48:41;;;;;;;5.13;3.20;;;;;;;3.95;100.00;100736.84;2615523;36;20026;-47
2022/12/08 08:51:11;;;;;;;9.93;3.80;;;;;;;4.08;100.00;100728.94;2615534;36;20031;-48
2022/12/08 08:53:39;;;;;;;7.70;3.35;;;;;;;3.97;100.00;100731.41;2615417;36;20527;-48
2022/12/08 08:56:11;;;;;;;5.97;3.28;;;;;;;4.06;100.00;100741.47;2616337;36;20620;-49
2022/12/08 08:58:39;;;;;;;6.28;3.38;;;;;;;4.17;100.00;100743.47;2616324;36;20030;-46
2022/12/08 09:01:10;;;;;;;5.88;3.50;;;;;;;3.99;100.00;100746.34;2615948;36;20027;-47
2022/12/08 09:03:39;;;;;;;4.75;3.08;;;;;;;4.10;100.00;100747.47;2616222;36;20030;-50
2022/12/08 09:06:07;;;;;;;5.53;3.40;;;;;;;4.23;100.00;100742.22;2616444;36;20395;-50
2022/12/08 09:08:36;;;;;;;5.57;3.10;;;;;;;4.00;100.00;100756.03;2616284;36;20042;-50
2022/12/08 09:11:04;;;;;;;5.53;3.00;;;;;;;4.09;100.00;100751.94;2615766;36;20031;-47
2022/12/08 09:13:32;;;;;;;7.00;4.35;;;;;;;4.16;100.00;100750.59;2616184;36;20554;-47
2022/12/08 09:16:03;;;;;;;7.80;3.45;;;;;;;4.16;100.00;100752.41;2616223;31;20026;-51
2022/12/08 09:18:34;;;;;;;5.50;2.97;;;;;;;4.16;100.00;100760.41;2616202;36;20185;-49
2022/12/08 09:21:07;;;;;;;7.32;3.63;;;;;;;4.24;100.00;100766.13;2615518;36;20034;-49
2022/12/08 09:23:35;;;;;;;6.40;3.38;;;;;;;4.05;100.00;100763.75;2615373;36;20054;-49
2022/12/08 09:26:05;;;;;;;6.95;2.95;;;;;;;4.18;100.00;100767.34;2614688;31;20034;-50
2022/12/08 09:28:33;;;;;;;4.47;2.90;;;;;;;4.25;100.00;100761.63;2615167;36;20475;-49
2022/12/08 09:31:02;;;;;;;5.60;2.93;;;;;;;4.24;100.00;100759.91;2615165;31;20030;-49
2022/12/08 09:33:30;;;;;;;6.32;3.03;;;;;;;4.04;100.00;100759.38;2614296;36;20041;-50
2022/12/08 09:36:03;;;;;;;4.18;2.65;;;;;;;4.19;100.00;100763.72;2614876;36;20031;-47
2022/12/08 09:38:32;;;;;;;5.30;3.33;;;;;;;4.35;100.00;100752.94;2616355;31;20471;-48
2022/12/08 09:41:01;;;;;;;6.07;2.80;;;;;;;4.42;100.00;100756.06;2615004;36;20039;-48
2022/12/08 09:43:57;;;;;;;5.90;2.78;;;;;;;4.32;100.00;100753.13;2615896;36;20039;-48
2022/12/08 09:46:27;;;;;;;5.97;2.90;;;;;;;4.50;100.00;100756.41;2613787;36;20030;-49
2022/12/08 09:48:58;;;;;;;6.30;2.95;;;;;;;4.49;100.00;100754.72;2614561;36;20031;-47
2022/12/08 09:51:34;;;;;;;4.63;2.55;;;;;;;4.49;100.00;100749.41;2615749;36;20031;-48
2022/12/08 09:54:07;;;;;;;5.60;2.92;;;;;;;4.43;100.00;100751.59;2615201;36;20034;-49
2022/12/08 09:56:38;;;;;;;5.75;2.75;;;;;;;4.50;100.00;100744.91;2614774;36;20038;-47
2022/12/08 09:59:18;;;;;;;4.35;3.22;;;;;;;4.38;100.00;100744.75;2615761;36;20037;-51
2022/12/08 10:01:46;;;;;;;4.20;3.10;;;;;;;4.68;100.00;100743.72;2615633;36;20030;-48
2022/12/08 10:04:21;;;;;;;4.50;3.03;;;;;;;4.65;100.00;100732.38;2614360;36;20042;-48
2022/12/08 10:07:03;;;;;;;4.75;3.70;;;;;;;4.71;100.00;100739.97;2614614;36;20034;-50
2022/12/08 10:09:40;;;;;;;4.18;2.97;;;;;;;4.63;100.00;100736.97;2616838;31;20034;-47
2022/12/08 10:12:16;;;;;;;5.05;3.28;;;;;;;4.46;100.00;100744.28;2615861;36;20419;-47
2022/12/08 10:14:48;;;;;;;6.35;3.78;;;;;;;4.29;100.00;100741.84;2615195;36;20037;-47
2022/12/08 10:17:21;;;;;;;7.78;4.32;;;;;;;4.47;100.00;100739.78;2614838;36;20559;-51
2022/12/08 10:19:50;;;;;;;8.68;3.15;;;;;;;4.50;100.00;100743.09;2614526;36;20419;-51
2022/12/08 10:22:26;;;;;;;4.43;3.33;;;;;;;4.45;100.00;100737.22;2615156;36;20054;-49
2022/12/08 10:25:01;;;;;;;7.60;3.45;;;;;;;4.76;100.00;100745.88;2615163;36;20036;-50
2022/12/08 10:27:30;;;;;;;5.50;3.10;;;;;;;4.51;100.00;100735.97;2615202;36;20035;-49
2022/12/08 10:29:58;;;;;;;3.80;2.88;;;;;;;4.64;100.00;100731.53;2609752;36;20039;-56
2022/12/08 10:32:36;;;;;;;4.43;2.80;;;;;;;4.68;100.00;100732.19;2572074;36;20031;-52
2022/12/08 10:35:08;;;;;;;6.47;3.50;;;;;;;4.78;100.00;100722.63;2543380;36;21665;-52
2022/12/08 10:37:39;;;;;;;3.47;2.50;;;;;;;4.81;100.00;100727.75;2544810;36;20904;-53
2022/12/08 10:40:13;;;;;;;3.78;2.60;;;;;;;4.82;100.00;100726.78;2543600;36;20034;-53
2022/12/08 10:42:44;;;;;;;2.90;2.42;;;;;;;4.88;100.00;100721.03;2585975;36;20034;-53
2022/12/08 10:45:28;;;;;;;6.47;2.88;;;;;;;4.75;100.00;100712.16;2567889;31;20061;-53
2022/12/08 10:48:03;;;;;;;3.25;2.58;;;;;;;4.81;100.00;100711.75;2591090;36;20038;-51
2022/12/08 10:50:35;;;;;;;3.45;1.90;;;;;;;4.73;100.00;100709.59;2615710;31;20638;-49
2022/12/08 10:53:16;;;;;;;2.92;2.50;;;;;;;4.82;100.00;100696.63;2608540;36;20030;-49
2022/12/08 10:55:47;;;;;;;3.72;1.90;;;;;;;4.92;100.00;100703.03;2614856;36;20030;-50
2022/12/08 10:58:29;;;;;;;4.97;1.92;;;;;;;4.88;100.00;100696.19;2615304;36;20034;-50
2022/12/08 11:01:00;;;;;;;1.88;1.42;;;;;;;5.01;100.00;100693.56;2618820;36;20058;-52
2022/12/08 11:03:31;;;;;;;2.70;1.75;;;;;;;4.97;100.00;100698.22;2615866;36;20469;-50
2022/12/08 11:06:02;;;;;;;3.50;1.45;;;;;;;4.97;100.00;100695.56;2615648;36;20026;-50
2022/12/08 11:08:33;;;;;;;2.58;1.75;;;;;;;5.08;100.00;100700.19;2615228;36;20109;-49
2022/12/08 11:11:02;;;;;;;3.20;1.23;;;;;;;5.18;100.00;100700.41;2615592;36;20030;-51
2022/12/08 11:13:30;;;;;;;4.28;1.48;;;;;;;5.26;100.00;100698.91;2614800;36;20030;-49
2022/12/08 11:15:59;;;;;;;3.47;1.42;;;;;;;5.43;100.00;100691.53;2615143;36;20030;-50
2022/12/08 11:18:30;;;;;;;4.85;1.40;;;;;;;5.19;100.00;100691.44;2615277;36;20030;-52
2022/12/08 11:21:03;;;;;;;3.35;1.30;;;;;;;5.14;100.00;100691.75;2615061;36;20034;-50
2022/12/08 11:23:37;;;;;;;2.67;1.40;;;;;;;5.15;100.00;100687.28;2601108;36;20034;-53
2022/12/08 11:26:12;;;;;;;3.35;1.30;;;;;;;5.34;100.00;100681.53;2613873;36;20039;-49
2022/12/08 11:28:41;;;;;;;1.88;1.10;;;;;;;5.44;100.00;100687.94;2586487;36;20034;-51
2022/12/08 11:31:22;;;;;;;2.35;1.30;;;;;;;5.06;100.00;100670.09;2614343;36;20022;-52
2022/12/08 11:33:53;;;;;;;4.35;1.40;;;;;;;5.09;100.00;100678.75;2615634;36;20030;-50
2022/12/08 11:36:23;;;;;;;2.80;1.40;;;;;;;5.24;100.00;100674.16;2615091;31;20089;-51
2022/12/08 11:38:58;;;;;;;3.95;1.23;;;;;;;5.25;100.00;100673.19;2614790;36;20034;-55
2022/12/08 11:41:31;;;;;;;5.32;1.50;;;;;;;5.23;100.00;100675.13;2615424;36;20555;-55
2022/12/08 11:44:07;;;;;;;4.53;1.50;;;;;;;5.05;100.00;100676.38;2615431;36;20185;-56
2022/12/08 11:46:42;;;;;;;4.45;1.23;;;;;;;4.87;100.00;100673.16;2593175;31;20550;-51
2022/12/08 11:49:13;;;;;;;0.70;0.70;;;;;;;4.98;100.00;100673.28;2615211;36;20025;-48